createdAt,value
2022-08-26T00:01:56.799Z,21.65
2022-08-26T00:04:26.141Z,21.75
2022-08-26T00:07:01.796Z,21.73
2022-08-26T00:09:42.147Z,21.66
2022-08-26T00:12:13.993Z,21.54
2022-08-26T00:14:41.794Z,21.42
2022-08-26T00:17:12.850Z,21.30
2022-08-26T00:19:43.546Z,21.33
2022-08-26T00:22:12.642Z,21.31
2022-08-26T00:24:47.838Z,21.25
2022-08-26T00:27:14.825Z,21.20
2022-08-26T00:29:41.417Z,21.35
2022-08-26T00:32:18.901Z,21.26
2022-08-26T00:34:47.607Z,21.29
2022-08-26T00:37:18.428Z,21.22
2022-08-26T00:39:51.020Z,21.29
2022-08-26T00:42:22.095Z,21.33
2022-08-26T00:44:49.378Z,21.37
2022-08-26T00:47:44.324Z,21.35
2022-08-26T00:50:16.984Z,21.44
2022-08-26T00:52:47.522Z,21.42
2022-08-26T00:55:21.711Z,21.48
2022-08-26T00:57:52.122Z,21.39
2022-08-26T01:00:26.165Z,21.37
2022-08-26T01:02:55.974Z,21.37
2022-08-26T01:05:27.940Z,21.27
2022-08-26T01:07:56.961Z,21.15
2022-08-26T01:10:31.182Z,21.05
2022-08-26T01:13:04.896Z,21.06
2022-08-26T01:15:40.078Z,20.94
2022-08-26T01:18:12.810Z,20.88
2022-08-26T01:21:12.376Z,20.77
2022-08-26T01:23:46.244Z,20.65
2022-08-26T01:26:19.706Z,20.62
2022-08-26T01:28:50.713Z,20.52
2022-08-26T01:31:23.672Z,20.54
2022-08-26T01:34:01.399Z,20.49
2022-08-26T01:36:29.687Z,20.41
2022-08-26T01:38:57.151Z,20.35
2022-08-26T01:41:27.196Z,20.27
2022-08-26T01:43:56.854Z,20.25
2022-08-26T01:46:25.755Z,20.22
2022-08-26T01:48:55.617Z,20.19
2022-08-26T01:51:27.360Z,20.19
2022-08-26T01:53:57.029Z,20.19
2022-08-26T01:56:33.446Z,20.17
2022-08-26T01:59:12.765Z,20.21
2022-08-26T02:01:40.787Z,20.23
2022-08-26T02:04:30.538Z,20.24
2022-08-26T02:06:57.505Z,20.28
2022-08-26T02:09:26.590Z,20.27
2022-08-26T02:11:53.801Z,20.30
2022-08-26T02:14:28.188Z,20.32
2022-08-26T02:16:55.086Z,20.28
2022-08-26T02:19:39.014Z,20.33
2022-08-26T02:22:12.518Z,20.30
2022-08-26T02:24:58.205Z,20.29
2022-08-26T02:27:34.683Z,20.23
2022-08-26T02:30:17.137Z,20.17
2022-08-26T02:32:44.339Z,20.17
2022-08-26T02:35:20.248Z,20.19
2022-08-26T02:37:47.950Z,20.22
2022-08-26T02:40:21.198Z,20.33
2022-08-26T02:42:49.438Z,20.36
2022-08-26T02:45:23.223Z,20.40
2022-08-26T02:47:52.861Z,20.49
2022-08-26T02:50:20.504Z,20.42
2022-08-26T02:52:57.090Z,20.50
2022-08-26T02:55:24.823Z,20.47
2022-08-26T02:57:57.965Z,20.42
2022-08-26T03:00:39.002Z,20.41
2022-08-26T03:03:12.798Z,20.45
2022-08-26T03:05:42.000Z,20.43
2022-08-26T03:08:10.601Z,20.45
2022-08-26T03:10:40.531Z,20.47
2022-08-26T03:13:08.372Z,20.50
2022-08-26T03:15:49.273Z,20.44
2022-08-26T03:18:17.709Z,20.51
2022-08-26T03:20:44.579Z,20.59
2022-08-26T03:23:11.584Z,20.59
2022-08-26T03:25:38.189Z,20.55
2022-08-26T03:28:09.543Z,20.56
2022-08-26T03:30:36.305Z,20.54
2022-08-26T03:33:06.755Z,20.54
2022-08-26T03:35:34.885Z,20.56
2022-08-26T03:38:03.987Z,20.49
2022-08-26T03:40:31.384Z,20.52
2022-08-26T03:43:01.821Z,20.51
2022-08-26T03:45:28.669Z,20.47
2022-08-26T03:47:55.293Z,20.44
2022-08-26T03:50:25.137Z,20.42
2022-08-26T03:52:54.835Z,20.48
2022-08-26T03:55:36.487Z,20.45
2022-08-26T03:58:04.083Z,20.43
2022-08-26T04:00:31.098Z,20.42
2022-08-26T04:02:57.914Z,20.42
2022-08-26T04:05:28.332Z,20.40
2022-08-26T04:07:57.341Z,20.39
2022-08-26T04:10:28.637Z,20.31
2022-08-26T04:13:01.367Z,20.34
2022-08-26T04:15:31.396Z,20.40
2022-08-26T04:17:58.047Z,20.39
2022-08-26T04:20:25.835Z,20.37
2022-08-26T04:22:56.969Z,20.42
2022-08-26T04:25:28.602Z,20.40
2022-08-26T04:27:57.393Z,20.44
2022-08-26T04:30:24.123Z,20.47
2022-08-26T04:32:54.298Z,20.45
2022-08-26T04:35:26.036Z,20.49
2022-08-26T04:37:55.796Z,20.42
2022-08-26T04:40:26.616Z,20.49
2022-08-26T04:42:53.921Z,20.40
2022-08-26T04:45:24.330Z,20.44
2022-08-26T04:47:55.675Z,20.53
2022-08-26T04:50:25.152Z,20.48
2022-08-26T04:52:51.859Z,20.51
2022-08-26T04:55:18.546Z,20.54
2022-08-26T04:57:48.591Z,20.51
2022-08-26T05:00:23.942Z,20.47
2022-08-26T05:03:00.413Z,20.51
2022-08-26T05:05:28.573Z,20.52
2022-08-26T05:07:55.113Z,20.44
2022-08-26T05:10:24.615Z,20.46
2022-08-26T05:12:52.278Z,20.45
2022-08-26T05:15:25.553Z,20.46
2022-08-26T05:17:52.127Z,20.47
2022-08-26T05:20:22.692Z,20.54
2022-08-26T05:22:55.530Z,20.49
2022-08-26T05:25:22.062Z,20.54
2022-08-26T05:27:52.581Z,20.57
2022-08-26T05:30:23.834Z,20.53
2022-08-26T05:32:55.236Z,20.44
2022-08-26T05:35:27.204Z,20.44
2022-08-26T05:37:59.421Z,20.48
2022-08-26T05:40:26.239Z,20.49
2022-08-26T05:42:53.069Z,20.40
2022-08-26T05:45:30.699Z,20.41
2022-08-26T05:47:57.397Z,20.40
2022-08-26T05:50:24.007Z,20.34
2022-08-26T05:52:59.624Z,20.34
2022-08-26T05:55:26.312Z,20.40
2022-08-26T05:57:57.315Z,20.36
2022-08-26T06:00:24.003Z,20.26
2022-08-26T06:02:51.305Z,20.36
2022-08-26T06:05:17.956Z,20.39
2022-08-26T06:07:44.614Z,20.41
2022-08-26T06:10:31.702Z,20.43
2022-08-26T06:12:59.144Z,20.45
2022-08-26T06:15:28.229Z,20.42
2022-08-26T06:17:55.811Z,20.34
2022-08-26T06:20:22.322Z,20.44
2022-08-26T06:22:48.792Z,20.37
2022-08-26T06:25:15.384Z,20.52
2022-08-26T06:27:44.128Z,20.50
2022-08-26T06:30:11.976Z,20.51
2022-08-26T06:32:38.972Z,20.63
2022-08-26T06:35:06.258Z,20.75
2022-08-26T06:37:38.450Z,20.70
2022-08-26T06:40:05.702Z,20.68
2022-08-26T06:42:32.167Z,20.76
2022-08-26T06:45:04.720Z,20.77
2022-08-26T06:47:31.356Z,20.81
2022-08-26T06:50:00.594Z,20.91
2022-08-26T06:52:27.468Z,21.00
2022-08-26T06:54:54.057Z,21.19
2022-08-26T06:57:20.914Z,21.33
2022-08-26T06:59:47.906Z,21.26
2022-08-26T07:02:21.413Z,21.28
2022-08-26T07:04:48.111Z,21.29
2022-08-26T07:07:17.821Z,21.30
2022-08-26T07:09:48.117Z,21.28
2022-08-26T07:12:18.792Z,21.35
2022-08-26T07:14:47.438Z,21.69
2022-08-26T07:17:15.440Z,21.87
2022-08-26T07:19:42.153Z,22.05
2022-08-26T07:22:09.058Z,22.01
2022-08-26T07:24:39.102Z,21.91
2022-08-26T07:27:08.983Z,21.85
2022-08-26T07:29:36.843Z,22.12
2022-08-26T07:32:03.879Z,22.21
2022-08-26T07:34:30.866Z,22.43
2022-08-26T07:36:57.299Z,22.61
2022-08-26T07:39:26.190Z,22.26
2022-08-26T07:41:53.239Z,22.14
2022-08-26T07:44:19.801Z,22.20
2022-08-26T07:46:52.329Z,22.23
2022-08-26T07:49:21.652Z,22.68
2022-08-26T07:51:48.216Z,22.94
2022-08-26T07:54:14.645Z,22.99
2022-08-26T07:56:41.203Z,22.88
2022-08-26T07:59:13.735Z,22.78
2022-08-26T08:01:41.466Z,22.74
2022-08-26T08:04:16.336Z,22.49
2022-08-26T08:06:44.187Z,22.38
2022-08-26T08:09:12.629Z,22.49
2022-08-26T08:11:39.644Z,22.75
2022-08-26T08:14:08.437Z,22.58
2022-08-26T08:16:37.254Z,22.33
2022-08-26T08:19:05.622Z,22.02
2022-08-26T08:21:32.122Z,21.87
2022-08-26T08:23:58.601Z,21.80
2022-08-26T08:26:26.560Z,21.93
2022-08-26T08:28:57.512Z,21.85
2022-08-26T08:34:13.744Z,22.10
2022-08-26T08:36:40.385Z,22.18
2022-08-26T08:39:08.152Z,22.16
2022-08-26T08:41:40.712Z,22.26
2022-08-26T08:44:19.582Z,22.13
2022-08-26T08:46:54.566Z,21.87
2022-08-26T08:49:22.584Z,22.09
2022-08-26T08:51:58.768Z,21.92
2022-08-26T08:54:26.207Z,21.89
2022-08-26T08:57:27.226Z,21.92
2022-08-26T09:00:05.437Z,21.77
2022-08-26T09:02:46.143Z,21.57
2022-08-26T09:05:25.928Z,21.53
2022-08-26T09:07:59.437Z,21.30
2022-08-26T09:10:47.258Z,21.07
2022-08-26T09:13:17.220Z,20.98
2022-08-26T09:16:19.041Z,21.03
2022-08-26T09:18:49.684Z,21.12
2022-08-26T09:21:18.664Z,21.25
2022-08-26T09:23:49.317Z,21.40
2022-08-26T09:26:29.178Z,21.34
2022-08-26T09:28:58.995Z,21.26
2022-08-26T09:31:31.721Z,21.33
2022-08-26T09:34:12.633Z,21.22
2022-08-26T09:36:46.687Z,21.08
2022-08-26T09:39:25.225Z,21.27
2022-08-26T09:42:08.400Z,21.34
2022-08-26T09:45:01.924Z,21.56
2022-08-26T09:47:37.032Z,21.80
2022-08-26T09:50:23.500Z,21.98
2022-08-26T09:53:28.548Z,22.03
2022-08-26T09:56:17.028Z,22.10
2022-08-26T09:58:46.778Z,22.15
2022-08-26T10:01:43.601Z,22.34
2022-08-26T10:04:23.026Z,22.52
2022-08-26T10:06:57.879Z,22.48
2022-08-26T10:09:25.605Z,22.43
2022-08-26T10:11:56.786Z,22.28
2022-08-26T10:14:29.219Z,22.03
2022-08-26T10:17:14.288Z,21.84
2022-08-26T10:19:57.216Z,21.99
2022-08-26T10:22:27.732Z,22.08
2022-08-26T10:24:57.509Z,22.36
2022-08-26T10:27:50.966Z,22.16
2022-08-26T10:30:22.279Z,22.12
2022-08-26T10:32:54.886Z,22.09
2022-08-26T10:35:21.476Z,21.74
2022-08-26T10:37:52.445Z,21.73
2022-08-26T10:40:26.654Z,21.75
2022-08-26T10:43:17.052Z,21.85
2022-08-26T10:45:49.983Z,21.90
2022-08-26T10:48:26.441Z,22.12
2022-08-26T10:51:03.171Z,22.20
2022-08-26T10:53:42.528Z,22.17
2022-08-26T10:56:37.165Z,22.25
2022-08-26T10:59:29.401Z,22.59
2022-08-26T11:02:33.173Z,22.61
2022-08-26T11:05:02.518Z,22.73
2022-08-26T11:07:46.387Z,22.61
2022-08-26T11:10:18.886Z,22.51
2022-08-26T11:12:49.237Z,22.53
2022-08-26T11:15:24.377Z,22.72
2022-08-26T11:17:51.241Z,22.89
2022-08-26T11:20:29.810Z,22.72
2022-08-26T11:23:16.761Z,22.37
2022-08-26T11:25:58.316Z,22.61
2022-08-26T11:28:45.006Z,22.93
2022-08-26T11:31:27.054Z,23.02
2022-08-26T11:33:58.009Z,22.97
2022-08-26T11:36:36.645Z,23.05
2022-08-26T11:39:14.406Z,23.01
2022-08-26T11:41:49.716Z,23.00
2022-08-26T11:44:24.623Z,23.24
2022-08-26T11:46:57.213Z,23.48
2022-08-26T11:49:24.273Z,23.96
2022-08-26T11:51:50.950Z,24.41
2022-08-26T11:54:30.493Z,24.85
2022-08-26T11:57:07.930Z,25.29
2022-08-26T11:59:40.636Z,24.94
2022-08-26T12:02:17.987Z,24.74
2022-08-26T12:04:48.940Z,24.26
2022-08-26T12:07:16.370Z,24.27
2022-08-26T12:10:00.504Z,24.37
2022-08-26T12:12:35.009Z,24.06
2022-08-26T12:15:18.422Z,23.64
2022-08-26T12:17:50.493Z,23.41
2022-08-26T12:20:38.117Z,23.04
2022-08-26T12:23:04.556Z,22.70
2022-08-26T12:25:35.964Z,22.72
2022-08-26T12:28:05.406Z,22.83
2022-08-26T12:30:31.961Z,22.78
2022-08-26T12:33:13.356Z,22.66
2022-08-26T12:35:51.472Z,22.77
2022-08-26T12:38:23.197Z,22.62
2022-08-26T12:40:49.672Z,22.48
2022-08-26T12:43:45.556Z,22.69
2022-08-26T12:46:28.079Z,22.61
2022-08-26T12:48:54.616Z,23.00
2022-08-26T12:51:30.989Z,23.11
2022-08-26T12:53:59.045Z,23.03
2022-08-26T12:56:25.466Z,22.95
2022-08-26T12:59:08.840Z,23.20
2022-08-26T13:01:41.216Z,22.99
2022-08-26T13:04:07.823Z,22.77
2022-08-26T13:07:12.745Z,22.57
2022-08-26T13:09:39.448Z,22.46
2022-08-26T13:12:12.624Z,22.55
2022-08-26T13:14:39.185Z,22.65
2022-08-26T13:17:17.437Z,22.53
2022-08-26T13:19:46.718Z,22.59
2022-08-26T13:22:17.059Z,22.75
2022-08-26T13:25:05.402Z,22.51
2022-08-26T13:27:32.207Z,22.56
2022-08-26T13:30:01.743Z,22.85
2022-08-26T13:32:29.917Z,22.84
2022-08-26T13:35:05.827Z,23.00
2022-08-26T13:37:42.139Z,22.97
2022-08-26T13:40:09.576Z,23.02
2022-08-26T13:42:49.508Z,23.15
2022-08-26T13:45:16.992Z,23.36
2022-08-26T13:47:43.655Z,23.54
2022-08-26T13:50:12.388Z,23.34
2022-08-26T13:52:40.122Z,23.24
2022-08-26T13:55:07.241Z,22.82
2022-08-26T13:57:54.056Z,22.49
2022-08-26T14:00:25.230Z,22.29
2022-08-26T14:02:51.870Z,22.27
2022-08-26T14:05:21.785Z,22.29
2022-08-26T14:07:48.386Z,22.25
2022-08-26T14:10:18.436Z,22.45
2022-08-26T14:12:45.497Z,22.85
2022-08-26T14:15:17.768Z,22.99
2022-08-26T14:17:49.174Z,23.08
2022-08-26T14:20:31.536Z,23.10
2022-08-26T14:23:13.045Z,22.93
2022-08-26T14:25:44.255Z,23.01
2022-08-26T14:30:55.538Z,22.66
2022-08-26T14:33:26.128Z,22.53
2022-08-26T14:35:52.947Z,22.42
2022-08-26T14:38:24.309Z,22.29
2022-08-26T14:40:59.445Z,22.43
2022-08-26T14:43:27.385Z,22.29
2022-08-26T14:46:20.635Z,22.33
2022-08-26T14:48:49.572Z,22.32
2022-08-26T14:51:19.798Z,22.33
2022-08-26T14:54:01.200Z,22.11
2022-08-26T14:56:32.198Z,21.87
2022-08-26T14:58:58.872Z,21.76
2022-08-26T15:01:30.387Z,21.78
2022-08-26T15:03:57.982Z,22.07
2022-08-26T15:06:30.748Z,22.20
2022-08-26T15:09:00.026Z,22.04
2022-08-26T15:11:28.958Z,22.02
2022-08-26T15:13:56.777Z,22.20
2022-08-26T15:16:25.745Z,22.30
2022-08-26T15:18:57.374Z,22.33
2022-08-26T15:21:28.872Z,21.95
2022-08-26T15:23:57.628Z,22.00
2022-08-26T15:26:26.454Z,22.11
2022-08-26T15:28:55.220Z,22.14
2022-08-26T15:31:29.247Z,22.38
2022-08-26T15:33:57.244Z,22.54
2022-08-26T15:36:27.134Z,22.71
2022-08-26T15:38:57.890Z,22.47
2022-08-26T15:41:25.663Z,22.26
2022-08-26T15:43:53.487Z,22.02
2022-08-26T15:46:20.247Z,21.74
2022-08-26T15:48:46.847Z,21.34
2022-08-26T15:51:29.291Z,21.20
2022-08-26T15:53:57.074Z,21.10
2022-08-26T15:56:33.714Z,21.12
2022-08-26T15:59:03.226Z,20.82
2022-08-26T16:01:33.022Z,21.02
2022-08-26T16:04:03.515Z,21.15
2022-08-26T16:06:37.848Z,21.21
2022-08-26T16:09:08.188Z,21.14
2022-08-26T16:11:37.846Z,21.14
2022-08-26T16:14:05.552Z,20.95
2022-08-26T16:17:09.415Z,20.98
2022-08-26T16:19:27.523Z,20.96
2022-08-26T16:21:55.376Z,20.94
2022-08-26T16:24:29.790Z,20.91
2022-08-26T16:26:57.068Z,20.76
2022-08-26T16:29:25.804Z,20.74
2022-08-26T16:31:54.449Z,20.80
2022-08-26T16:34:22.109Z,20.76
2022-08-26T16:36:52.255Z,20.75
2022-08-26T16:39:20.153Z,21.03
2022-08-26T16:41:49.061Z,21.14
2022-08-26T16:44:24.130Z,21.19
2022-08-26T16:47:03.400Z,21.34
2022-08-26T16:49:32.327Z,21.52
2022-08-26T16:52:00.704Z,21.34
2022-08-26T16:54:33.608Z,21.31
2022-08-26T16:59:50.386Z,21.19
2022-08-26T17:02:23.099Z,20.92
2022-08-26T17:04:51.177Z,20.93
2022-08-26T17:07:30.125Z,20.80
2022-08-26T17:09:57.943Z,20.85
2022-08-26T17:12:24.615Z,20.63
2022-08-26T17:14:58.154Z,20.62
2022-08-26T17:17:35.910Z,20.66
2022-08-26T17:20:14.925Z,20.55
2022-08-26T17:22:56.523Z,20.52
2022-08-26T17:25:29.041Z,20.57
2022-08-26T17:28:01.891Z,20.66
2022-08-26T17:30:29.827Z,20.71
2022-08-26T17:33:11.018Z,20.76
2022-08-26T17:35:40.113Z,20.92
2022-08-26T17:38:06.782Z,21.16
2022-08-26T17:40:35.408Z,21.37
2022-08-26T17:43:01.931Z,21.07
2022-08-26T17:45:28.390Z,20.83
2022-08-26T17:47:56.040Z,20.80
2022-08-26T17:50:23.856Z,20.62
2022-08-26T17:52:50.368Z,20.26
2022-08-26T17:55:18.530Z,20.09
2022-08-26T17:57:53.566Z,19.87
2022-08-26T18:00:23.464Z,19.69
2022-08-26T18:02:49.898Z,19.58
2022-08-26T18:05:16.628Z,19.46
2022-08-26T18:07:44.295Z,19.35
2022-08-26T18:10:13.474Z,19.26
2022-08-26T18:12:40.875Z,19.33
2022-08-26T18:15:08.713Z,19.38
2022-08-26T18:17:35.344Z,19.42
2022-08-26T18:20:02.085Z,19.38
2022-08-26T18:22:29.007Z,19.37
2022-08-26T18:24:58.888Z,19.28
2022-08-26T18:27:27.316Z,19.10
2022-08-26T18:29:57.202Z,18.96
2022-08-26T18:32:23.886Z,18.85
2022-08-26T18:34:50.562Z,18.80
2022-08-26T18:37:21.299Z,18.81
2022-08-26T18:39:50.192Z,18.93
2022-08-26T18:42:19.286Z,18.99
2022-08-26T18:45:19.636Z,18.94
2022-08-26T18:47:40.215Z,18.87
2022-08-26T18:50:16.424Z,18.88
2022-08-26T18:52:46.732Z,18.78
2022-08-26T18:55:13.244Z,18.65
2022-08-26T18:57:39.954Z,18.50
2022-08-26T19:00:07.898Z,18.31
2022-08-26T19:02:34.646Z,18.28
2022-08-26T19:05:01.426Z,18.30
2022-08-26T19:07:27.881Z,18.22
2022-08-26T19:09:54.379Z,18.15
2022-08-26T19:12:21.010Z,18.04
2022-08-26T19:14:47.430Z,17.99
2022-08-26T19:17:14.188Z,17.93
2022-08-26T19:19:40.760Z,17.82
2022-08-26T19:22:07.579Z,17.84
2022-08-26T19:24:34.241Z,17.74
2022-08-26T19:27:02.147Z,17.74
2022-08-26T19:29:33.453Z,17.69
2022-08-26T19:32:00.293Z,17.73
2022-08-26T19:34:26.769Z,17.70
2022-08-26T19:36:54.183Z,17.77
2022-08-26T19:39:21.454Z,17.63
2022-08-26T19:41:48.124Z,17.53
2022-08-26T19:44:17.133Z,17.51
2022-08-26T19:46:43.596Z,17.44
2022-08-26T19:49:10.231Z,17.37
2022-08-26T19:51:41.359Z,17.42
2022-08-26T19:54:12.109Z,17.23
2022-08-26T19:56:42.050Z,17.13
2022-08-26T19:59:21.174Z,17.07
2022-08-26T20:01:55.171Z,17.09
2022-08-26T20:04:30.215Z,17.02
2022-08-26T20:07:00.941Z,16.98
2022-08-26T20:09:34.120Z,16.90
2022-08-26T20:12:01.546Z,16.89
2022-08-26T20:14:32.414Z,16.82
2022-08-26T20:17:01.469Z,16.73
2022-08-26T20:19:27.984Z,16.69
2022-08-26T20:21:54.833Z,16.62
2022-08-26T20:25:08.156Z,16.62
2022-08-26T20:27:08.859Z,16.56
2022-08-26T20:29:38.967Z,16.44
2022-08-26T20:32:07.640Z,16.39
2022-08-26T20:34:37.456Z,16.36
2022-08-26T20:37:04.440Z,16.35
2022-08-26T20:39:32.258Z,16.30
2022-08-26T20:42:00.756Z,16.31
2022-08-26T20:44:28.597Z,16.25
2022-08-26T20:46:57.643Z,16.23
2022-08-26T20:49:26.673Z,16.27
2022-08-26T20:51:53.358Z,16.24
2022-08-26T20:54:26.161Z,16.20
2022-08-26T20:56:58.502Z,16.14
2022-08-26T20:59:25.892Z,16.14
2022-08-26T21:01:52.901Z,16.12
2022-08-26T21:04:29.849Z,16.11
2022-08-26T21:06:57.760Z,16.04
2022-08-26T21:09:28.198Z,16.00
2022-08-26T21:11:58.799Z,15.89
2022-08-26T21:14:26.462Z,15.80
2022-08-26T21:16:54.610Z,15.73
2022-08-26T21:19:23.907Z,15.74
2022-08-26T21:21:52.044Z,15.79
2022-08-26T21:24:20.006Z,15.78
2022-08-26T21:26:50.638Z,15.78
2022-08-26T21:29:17.190Z,15.73
2022-08-26T21:31:46.383Z,15.69
2022-08-26T21:34:16.407Z,15.65
2022-08-26T21:36:45.904Z,15.63
2022-08-26T21:39:15.430Z,15.63
2022-08-26T21:41:51.651Z,15.55
2022-08-26T21:44:18.538Z,15.51
2022-08-26T21:46:48.609Z,15.47
2022-08-26T21:49:17.368Z,15.43
2022-08-26T21:51:47.301Z,15.45
2022-08-26T21:54:15.141Z,15.40
2022-08-26T21:56:46.042Z,15.44
2022-08-26T21:59:15.238Z,15.40
2022-08-26T22:01:41.876Z,15.36
2022-08-26T22:04:09.827Z,15.40
2022-08-26T22:06:46.453Z,15.37
2022-08-26T22:09:15.169Z,15.32
2022-08-26T22:11:41.853Z,15.30
2022-08-26T22:14:08.823Z,15.24
2022-08-26T22:16:35.326Z,15.23
2022-08-26T22:19:01.825Z,15.14
2022-08-26T22:21:28.428Z,15.15
2022-08-26T22:23:57.956Z,15.07
2022-08-26T22:26:27.552Z,15.03
2022-08-26T22:28:55.628Z,14.96
2022-08-26T22:31:28.111Z,14.94
2022-08-26T22:34:06.365Z,14.99
2022-08-26T22:36:32.857Z,14.90
2022-08-26T22:38:59.283Z,14.88
2022-08-26T22:41:28.379Z,14.84
2022-08-26T22:44:01.776Z,14.83
2022-08-26T22:46:29.900Z,14.82
2022-08-26T22:48:56.534Z,14.86
2022-08-26T22:51:23.048Z,14.78
2022-08-26T22:53:51.635Z,14.78
2022-08-26T22:56:18.374Z,14.75
2022-08-26T22:58:46.863Z,14.75
2022-08-26T23:01:16.706Z,14.71
2022-08-26T23:03:44.395Z,14.65
2022-08-26T23:06:14.033Z,14.67
2022-08-26T23:08:41.491Z,14.63
2022-08-26T23:11:10.145Z,14.59
2022-08-26T23:13:36.763Z,14.55
2022-08-26T23:16:07.861Z,14.55
2022-08-26T23:18:35.448Z,14.53
2022-08-26T23:21:04.983Z,14.50
2022-08-26T23:23:32.269Z,14.50
2022-08-26T23:26:03.242Z,14.45
2022-08-26T23:28:32.335Z,14.46
2022-08-26T23:30:58.863Z,14.45
2022-08-26T23:33:25.557Z,14.43
2022-08-26T23:35:52.141Z,14.40
2022-08-26T23:38:18.699Z,14.37
2022-08-26T23:40:47.331Z,14.32
2022-08-26T23:43:13.813Z,14.27
2022-08-26T23:45:42.619Z,14.27
2022-08-26T23:48:09.345Z,14.25
2022-08-26T23:50:38.020Z,14.22
2022-08-26T23:53:04.673Z,14.18
2022-08-26T23:55:36.923Z,14.14
2022-08-26T23:58:03.963Z,14.12
